METAR AND TAF INFORMATION
METAR FOR EPWR
ADDS - METARS form results

(0714 UTC 20 June 2018)
Data provider http://aviationweather.gov/adds/metars/
 
METAR text: EPWR 200700Z VRB03KT 9999 FEW043 23/14 Q1023
Conditions at: EPWR (WROCLAW/STRACHOW, PL) observed 0700 UTC 20 June 2018
Temperature: 23.0°C (73°F)
Dewpoint: 14.0°C (57°F) [RH = 57%]
Pressure (altimeter): 30.21 inches Hg (1023.0 mb)
Winds: variable direction winds at 3 MPH (3 knots; 1.6 m/s)
Visibility: 6 or more miles (10+ km)
Ceiling: at least 12,000 feet AGL
Clouds: few clouds at 4300 feet AGL
Weather: no significant weather observed at this time

METAR text: EPWR 200630Z 36005KT 330V050 CAVOK 22/15 Q1024
Conditions at: EPWR (WROCLAW/STRACHOW, PL) observed 0630 UTC 20 June 2018
Temperature: 22.0°C (72°F)
Dewpoint: 15.0°C (59°F) [RH = 65%]
Pressure (altimeter): 30.24 inches Hg (1024.0 mb)
Winds: from the N (360 degrees) at 6 MPH (5 knots; 2.6 m/s)
Visibility: 6 or more miles (10+ km)
Ceiling: ceiling and visibility are OK
Clouds: unknown
Weather: no significant weather observed at this time

Forecast for: EPWR (WROCLAW/STRACHOW, PL)
Text: TAF EPWR 200530Z 2006/2106 27004KT CAVOK
Forecast period: 0600 UTC 20 June 2018 to 0600 UTC 21 June 2018
Forecast type: FROM: standard forecast or significant change
Winds: from the W (270 degrees) at 5 MPH (4 knots; 2.1 m/s)
Visibility: 6 or more miles (10+ km)
Clouds: not forecast
Weather: NSW  (no significant weather)

 AIRPORT MAP

 RUNWAY INFORMATION
Runway 12 Runway length 8202 ft Runway width 197 ft
Runway elevation 404 ft Runway displaced threshold 0 ft Runway heading 116
Runway 30 Runway length 8202 ft Runway width 197 ft
Runway elevation 400 ft Runway displaced threshold 0 ft Runway heading 296

 AIRPORT FREQUENCIES
Type TWR Name WROCLAW TW Frequency 127.225 MHZ

 AIRPORT NEAR NAVIGATION AIDS
Type NDB Name Wroclaw Frequency 255 KHZ
Type NDB Name Wroclaw Frequency 525 KHZ
Type VOR-DME Name Trzebnica Frequency 113600 KHZ



Powered by Virtual Airlines Manager [v2.6.1]